createdAt,value
2022-11-19T00:02:20.099Z,20.13
2022-11-19T00:04:46.977Z,20.27
2022-11-19T00:07:13.826Z,20.93
2022-11-19T00:09:40.646Z,20.83
2022-11-19T00:12:26.042Z,21.90
2022-11-19T00:14:52.939Z,20.80
2022-11-19T00:17:19.721Z,16.07
2022-11-19T00:19:46.514Z,17.97
2022-11-19T00:22:13.419Z,21.57
2022-11-19T00:24:40.297Z,20.10
2022-11-19T00:27:07.315Z,16.83
2022-11-19T00:29:34.145Z,16.47
2022-11-19T00:32:00.903Z,19.80
2022-11-19T00:34:27.813Z,16.17
2022-11-19T00:36:54.617Z,14.93
2022-11-19T00:39:22.189Z,18.20
2022-11-19T00:41:49.256Z,19.43
2022-11-19T00:44:16.005Z,16.13
2022-11-19T00:46:42.852Z,19.03
2022-11-19T00:49:09.728Z,17.73
2022-11-19T00:51:36.804Z,17.87
2022-11-19T00:54:03.644Z,15.13
2022-11-19T00:56:30.475Z,16.63
2022-11-19T00:58:57.384Z,18.37
2022-11-19T01:01:25.079Z,17.67
2022-11-19T01:03:52.475Z,19.37
2022-11-19T01:06:20.891Z,19.17
2022-11-19T01:08:48.733Z,18.03
2022-11-19T01:11:25.281Z,16.77
2022-11-19T01:13:52.443Z,19.57
2022-11-19T01:16:38.108Z,20.17
2022-11-19T01:19:05.676Z,19.80
2022-11-19T01:21:33.788Z,18.97
2022-11-19T01:24:01.075Z,21.63
2022-11-19T01:29:57.202Z,20.20
2022-11-19T01:32:23.939Z,21.87
2022-11-19T01:34:51.435Z,22.53
2022-11-19T01:37:18.279Z,19.57
2022-11-19T01:39:45.032Z,22.40
2022-11-19T01:42:38.716Z,23.30
2022-11-19T01:45:06.723Z,20.17
2022-11-19T01:47:33.726Z,19.03
2022-11-19T01:50:00.741Z,23.17
2022-11-19T01:52:27.766Z,20.67
2022-11-19T01:54:55.819Z,22.10
2022-11-19T01:57:22.647Z,23.03
2022-11-19T01:59:51.488Z,22.17
2022-11-19T02:02:19.969Z,22.07
2022-11-19T02:04:47.362Z,19.03
2022-11-19T02:07:14.360Z,22.23
2022-11-19T02:09:41.404Z,23.17
2022-11-19T02:12:34.462Z,19.73
2022-11-19T02:15:06.474Z,19.03
2022-11-19T02:17:33.347Z,24.70
2022-11-19T02:20:00.055Z,24.93
2022-11-19T02:22:26.901Z,35.03
2022-11-19T02:24:54.593Z,22.37
2022-11-19T02:27:24.475Z,21.77
2022-11-19T02:29:51.317Z,22.30
2022-11-19T02:32:20.921Z,22.83
2022-11-19T02:34:50.889Z,24.50
2022-11-19T02:37:30.103Z,23.50
2022-11-19T02:40:06.236Z,23.53
2022-11-19T02:42:53.401Z,22.40
2022-11-19T02:45:24.057Z,26.20
2022-11-19T02:47:52.194Z,24.53
2022-11-19T02:50:21.021Z,28.53
2022-11-19T02:52:48.586Z,24.47
2022-11-19T02:55:16.551Z,21.60
2022-11-19T02:57:45.459Z,23.40
2022-11-19T03:00:31.103Z,23.27
2022-11-19T03:03:26.035Z,24.20
2022-11-19T03:05:55.843Z,24.53
2022-11-19T03:08:22.828Z,28.43
2022-11-19T03:11:06.202Z,27.90
2022-11-19T03:13:58.641Z,24.03
2022-11-19T03:16:41.990Z,23.97
2022-11-19T03:19:18.331Z,25.63
2022-11-19T03:21:52.319Z,24.50
2022-11-19T03:24:30.235Z,24.77
2022-11-19T03:27:05.856Z,23.40
2022-11-19T03:29:33.506Z,25.67
2022-11-19T03:32:04.613Z,22.60
2022-11-19T03:34:31.854Z,23.13
2022-11-19T03:37:00.431Z,25.37
2022-11-19T03:39:27.607Z,25.63
2022-11-19T03:41:54.815Z,22.80
2022-11-19T03:44:30.623Z,26.30
2022-11-19T03:47:02.895Z,23.03
2022-11-19T03:49:32.235Z,23.03
2022-11-19T03:52:01.919Z,25.53
2022-11-19T03:54:28.842Z,27.20
2022-11-19T03:56:57.356Z,22.77
2022-11-19T03:59:29.183Z,23.07
2022-11-19T04:01:58.627Z,25.43
2022-11-19T04:04:37.711Z,20.07
2022-11-19T04:07:11.136Z,23.83
2022-11-19T04:09:39.327Z,21.60
2022-11-19T04:12:06.607Z,24.43
2022-11-19T04:14:33.382Z,20.00
2022-11-19T04:17:00.356Z,23.37
2022-11-19T04:19:27.198Z,20.80
2022-11-19T04:21:54.030Z,22.50
2022-11-19T04:24:20.841Z,22.67
2022-11-19T04:26:47.688Z,20.97
2022-11-19T04:29:14.639Z,22.00
2022-11-19T04:31:41.891Z,19.43
2022-11-19T04:34:08.780Z,20.50
2022-11-19T04:36:35.644Z,22.00
2022-11-19T04:39:02.564Z,20.37
2022-11-19T04:41:29.299Z,19.43
2022-11-19T04:43:56.181Z,24.10
2022-11-19T04:46:23.078Z,20.63
2022-11-19T04:48:49.908Z,19.73
2022-11-19T04:51:16.686Z,22.17
2022-11-19T04:53:44.087Z,20.87
2022-11-19T04:56:11.086Z,18.90
2022-11-19T04:58:38.032Z,22.97
2022-11-19T05:01:04.907Z,21.07
2022-11-19T05:03:31.721Z,22.10
2022-11-19T05:05:58.525Z,23.90
2022-11-19T05:08:25.390Z,21.10
2022-11-19T05:10:52.442Z,20.03
2022-11-19T05:13:19.179Z,22.97
2022-11-19T05:15:46.342Z,21.13
2022-11-19T05:18:13.836Z,17.27
2022-11-19T05:20:40.738Z,20.97
2022-11-19T05:23:07.521Z,23.40
2022-11-19T05:25:34.399Z,21.03
2022-11-19T05:28:01.251Z,18.23
2022-11-19T05:30:28.068Z,18.70
2022-11-19T05:32:54.914Z,19.83
2022-11-19T05:35:21.719Z,20.93
2022-11-19T05:37:49.174Z,18.93
2022-11-19T05:40:16.235Z,17.60
2022-11-19T05:42:43.651Z,21.77
2022-11-19T05:45:10.849Z,20.83
2022-11-19T05:47:37.635Z,18.10
2022-11-19T05:50:04.700Z,19.33
2022-11-19T05:52:31.858Z,22.57
2022-11-19T05:54:59.067Z,17.77
2022-11-19T05:57:25.997Z,18.07
2022-11-19T05:59:52.935Z,18.53
2022-11-19T06:02:20.330Z,16.60
2022-11-19T06:04:47.241Z,19.67
2022-11-19T06:07:14.094Z,16.80
2022-11-19T06:09:40.949Z,20.63
2022-11-19T06:12:07.846Z,19.67
2022-11-19T06:14:34.812Z,23.03
2022-11-19T06:17:01.770Z,18.50
2022-11-19T06:19:28.575Z,20.93
2022-11-19T06:21:55.508Z,20.40
2022-11-19T06:24:22.314Z,18.77
2022-11-19T06:26:49.140Z,18.43
2022-11-19T06:29:16.979Z,21.47
2022-11-19T06:31:44.098Z,19.03
2022-11-19T06:34:10.990Z,22.47
2022-11-19T06:36:41.930Z,16.47
2022-11-19T06:39:09.922Z,19.70
2022-11-19T06:41:37.092Z,22.70
2022-11-19T06:44:04.025Z,18.90
2022-11-19T06:46:31.328Z,16.40
2022-11-19T06:48:58.118Z,17.47
2022-11-19T06:51:24.991Z,15.43
2022-11-19T06:53:51.871Z,18.93
2022-11-19T06:56:18.789Z,20.07
2022-11-19T06:58:45.581Z,17.53
2022-11-19T07:01:14.518Z,17.13
2022-11-19T07:03:41.482Z,16.27
2022-11-19T07:06:08.868Z,17.80
2022-11-19T07:08:36.751Z,16.27
2022-11-19T07:11:23.839Z,16.23
2022-11-19T07:14:00.346Z,16.47
2022-11-19T07:16:31.491Z,19.90
2022-11-19T07:18:59.176Z,17.27
2022-11-19T07:21:26.195Z,16.17
2022-11-19T07:23:53.287Z,18.70
2022-11-19T07:26:20.140Z,17.77
2022-11-19T07:28:47.036Z,22.23
2022-11-19T07:31:14.029Z,20.93
2022-11-19T07:33:41.085Z,16.63
2022-11-19T07:36:11.619Z,21.27
2022-11-19T07:38:42.338Z,22.23
2022-11-19T07:41:27.751Z,22.40
2022-11-19T07:43:55.279Z,20.13
2022-11-19T07:46:22.180Z,19.87
2022-11-19T07:48:53.398Z,20.83
2022-11-19T07:51:20.943Z,24.03
2022-11-19T07:53:48.160Z,32.17
2022-11-19T07:56:15.002Z,42.43
2022-11-19T07:58:41.924Z,23.90
2022-11-19T08:01:13.134Z,26.93
2022-11-19T08:03:42.836Z,32.63
2022-11-19T08:06:10.140Z,23.50
2022-11-19T08:08:36.925Z,21.13
2022-11-19T08:11:05.014Z,23.27
2022-11-19T08:13:32.102Z,23.20
2022-11-19T08:15:59.649Z,22.57
2022-11-19T08:18:31.018Z,24.43
2022-11-19T08:21:08.660Z,23.30
2022-11-19T08:23:35.958Z,24.43
2022-11-19T08:26:03.198Z,20.83
2022-11-19T08:28:30.162Z,22.57
2022-11-19T08:30:57.777Z,20.77
2022-11-19T08:33:24.756Z,24.53
2022-11-19T08:35:54.444Z,26.10
2022-11-19T08:38:21.305Z,25.40
2022-11-19T08:40:52.518Z,21.37
2022-11-19T08:43:19.694Z,20.37
2022-11-19T08:45:52.963Z,28.07
2022-11-19T08:48:20.070Z,28.73
2022-11-19T08:50:46.907Z,30.60
2022-11-19T08:53:13.691Z,22.27
2022-11-19T08:55:40.630Z,17.53
2022-11-19T08:58:07.783Z,18.07
2022-11-19T09:00:35.781Z,18.23
2022-11-19T09:03:02.917Z,17.13
2022-11-19T09:05:29.664Z,21.23
2022-11-19T09:07:56.546Z,24.10
2022-11-19T09:10:23.527Z,18.57
2022-11-19T09:12:50.458Z,16.53
2022-11-19T09:15:17.352Z,19.20
2022-11-19T09:17:47.025Z,19.80
2022-11-19T09:20:14.364Z,19.27
2022-11-19T09:22:41.124Z,19.90
2022-11-19T09:25:09.174Z,17.43
2022-11-19T09:27:36.501Z,19.23
2022-11-19T09:30:03.844Z,19.03
2022-11-19T09:32:31.580Z,18.17
2022-11-19T09:34:58.496Z,20.43
2022-11-19T09:37:25.275Z,20.50
2022-11-19T09:39:52.150Z,17.33
2022-11-19T09:42:32.747Z,21.07
2022-11-19T09:45:08.840Z,19.47
2022-11-19T09:47:35.586Z,15.13
2022-11-19T09:50:11.191Z,152.23
2022-11-19T09:52:41.491Z,19.53
2022-11-19T09:55:13.933Z,16.77
2022-11-19T09:57:45.911Z,13.63
2022-11-19T10:00:16.496Z,15.77
2022-11-19T10:02:44.168Z,14.23
2022-11-19T10:05:26.934Z,13.53
2022-11-19T10:08:26.152Z,14.93
2022-11-19T10:11:16.356Z,15.03
2022-11-19T10:13:58.794Z,16.97
2022-11-19T10:16:39.213Z,13.57
2022-11-19T10:19:20.883Z,18.00
2022-11-19T10:21:56.706Z,18.50
2022-11-19T10:24:34.588Z,17.67
2022-11-19T10:27:08.340Z,18.50
2022-11-19T10:29:38.357Z,18.27
2022-11-19T10:32:17.915Z,16.80
2022-11-19T10:34:45.374Z,16.83
2022-11-19T10:37:14.591Z,13.67
2022-11-19T10:39:44.176Z,15.07
2022-11-19T10:42:19.103Z,12.87
2022-11-19T10:44:49.796Z,14.70
2022-11-19T10:47:22.547Z,16.93
2022-11-19T10:49:55.656Z,14.60
2022-11-19T10:52:42.783Z,12.57
2022-11-19T10:55:28.521Z,14.53
2022-11-19T10:58:15.574Z,11.47
2022-11-19T11:00:43.029Z,11.37
2022-11-19T11:03:21.200Z,12.40
2022-11-19T11:05:58.720Z,11.77
2022-11-19T11:08:25.615Z,14.23
2022-11-19T11:10:52.996Z,13.33
2022-11-19T11:13:38.437Z,12.77
2022-11-19T11:16:13.028Z,11.23
2022-11-19T11:18:41.576Z,12.10
2022-11-19T11:21:13.312Z,25.80
2022-11-19T11:23:51.991Z,26.90
2022-11-19T11:26:21.192Z,13.17
2022-11-19T11:28:59.206Z,18.03
2022-11-19T11:31:45.163Z,14.67
2022-11-19T11:34:15.810Z,11.70
2022-11-19T11:36:43.777Z,15.73
2022-11-19T11:39:22.614Z,14.93
2022-11-19T11:42:07.076Z,15.53
2022-11-19T11:44:38.771Z,15.03
2022-11-19T11:47:25.961Z,21.50
2022-11-19T11:50:05.443Z,15.63
2022-11-19T11:52:43.969Z,17.90
2022-11-19T11:55:25.873Z,15.95
2022-11-19T11:58:00.062Z,20.65
2022-11-19T12:00:32.173Z,13.47
2022-11-19T12:03:00.666Z,18.23
2022-11-19T12:05:30.202Z,18.17
2022-11-19T12:08:02.906Z,19.03
2022-11-19T12:10:49.038Z,17.57
2022-11-19T12:13:40.828Z,23.07
2022-11-19T12:16:14.026Z,20.90
2022-11-19T12:18:59.329Z,19.47
2022-11-19T12:21:45.037Z,20.43
2022-11-19T12:24:37.882Z,23.27
2022-11-19T12:27:07.843Z,22.43
2022-11-19T12:29:40.907Z,22.33
2022-11-19T12:32:26.616Z,21.27
2022-11-19T12:35:04.030Z,22.40
2022-11-19T12:37:42.826Z,21.37
2022-11-19T12:40:19.248Z,21.17
2022-11-19T12:42:46.129Z,19.63
2022-11-19T12:45:21.751Z,23.37
2022-11-19T12:47:58.094Z,20.83
2022-11-19T12:50:29.638Z,17.63
2022-11-19T12:52:59.305Z,18.13
2022-11-19T12:55:38.844Z,24.87
2022-11-19T12:58:25.753Z,27.07
2022-11-19T13:01:12.892Z,16.97
2022-11-19T13:04:06.515Z,26.97
2022-11-19T13:06:41.126Z,26.40
2022-11-19T13:09:13.721Z,30.30
2022-11-19T13:11:47.968Z,50.30
2022-11-19T13:14:27.973Z,29.00
2022-11-19T13:16:55.896Z,32.97
2022-11-19T13:19:24.923Z,42.50
2022-11-19T13:22:00.938Z,31.23
2022-11-19T13:24:39.528Z,26.07
2022-11-19T13:27:08.064Z,24.43
2022-11-19T13:29:41.592Z,31.73
2022-11-19T13:32:14.210Z,28.97
2022-11-19T13:34:42.184Z,36.93
2022-11-19T13:37:16.986Z,32.17
2022-11-19T13:39:47.829Z,25.07
2022-11-19T13:42:34.951Z,26.97
2022-11-19T13:45:02.026Z,30.17
2022-11-19T13:47:42.701Z,29.07
2022-11-19T13:50:20.631Z,26.13
2022-11-19T13:52:54.193Z,21.00
2022-11-19T13:55:27.136Z,21.90
2022-11-19T13:57:54.074Z,19.73
2022-11-19T14:00:25.470Z,17.90
2022-11-19T14:03:10.992Z,21.33
2022-11-19T14:05:50.795Z,17.33
2022-11-19T14:08:27.167Z,19.30
2022-11-19T14:11:12.146Z,18.57
2022-11-19T14:14:34.820Z,20.20
2022-11-19T14:17:40.447Z,21.10
2022-11-19T14:20:45.626Z,21.90
2022-11-19T14:24:07.485Z,20.03
2022-11-19T14:26:40.378Z,22.83
2022-11-19T14:29:16.140Z,23.50
2022-11-19T14:32:01.222Z,18.70
2022-11-19T14:34:29.570Z,18.93
2022-11-19T14:36:58.027Z,19.93
2022-11-19T14:39:29.020Z,23.60
2022-11-19T14:42:15.314Z,21.90
2022-11-19T14:44:43.115Z,28.20
2022-11-19T14:47:30.080Z,23.70
2022-11-19T14:49:57.091Z,19.73
2022-11-19T14:52:27.832Z,15.97
2022-11-19T14:55:00.156Z,17.60
2022-11-19T14:57:37.799Z,20.87
2022-11-19T15:00:06.683Z,28.73
2022-11-19T15:02:35.670Z,21.23
2022-11-19T15:05:05.460Z,15.83
2022-11-19T15:07:37.227Z,18.63
2022-11-19T15:10:07.031Z,17.70
2022-11-19T15:12:45.409Z,17.53
2022-11-19T15:15:21.131Z,20.30
2022-11-19T15:18:02.967Z,18.27
2022-11-19T15:20:35.990Z,19.63
2022-11-19T15:23:15.319Z,16.67
2022-11-19T15:25:51.304Z,15.20
2022-11-19T15:28:23.751Z,13.63
2022-11-19T15:31:02.782Z,15.83
2022-11-19T15:33:32.402Z,16.70
2022-11-19T15:36:13.440Z,17.03
2022-11-19T15:38:52.537Z,15.20
2022-11-19T15:41:22.505Z,17.17
2022-11-19T15:43:52.005Z,18.13
2022-11-19T15:46:22.223Z,20.33
2022-11-19T15:48:51.758Z,22.47
2022-11-19T15:51:19.529Z,14.30
2022-11-19T15:54:07.145Z,16.23
2022-11-19T15:56:43.732Z,14.77
2022-11-19T15:59:13.263Z,17.30
2022-11-19T16:01:41.420Z,18.23
2022-11-19T16:04:14.453Z,19.43
2022-11-19T16:06:44.931Z,20.83
2022-11-19T16:09:18.041Z,17.97
2022-11-19T16:12:03.961Z,18.80
2022-11-19T16:14:49.535Z,19.57
2022-11-19T16:17:34.845Z,18.03
2022-11-19T16:20:04.025Z,21.37
2022-11-19T16:22:35.890Z,22.43
2022-11-19T16:25:11.547Z,26.87
2022-11-19T16:27:41.113Z,31.50
2022-11-19T16:30:16.069Z,26.20
2022-11-19T16:32:42.954Z,21.23
2022-11-19T16:35:11.097Z,22.50
2022-11-19T16:37:38.559Z,22.17
2022-11-19T16:40:06.980Z,27.60
2022-11-19T16:42:33.939Z,34.67
2022-11-19T16:45:10.093Z,30.00
2022-11-19T16:47:38.754Z,33.50
2022-11-19T16:50:24.044Z,36.23
2022-11-19T16:52:51.560Z,32.10
2022-11-19T16:55:18.303Z,34.40
2022-11-19T16:57:56.302Z,36.47
2022-11-19T17:00:31.059Z,36.97
2022-11-19T17:02:58.241Z,36.33
2022-11-19T17:05:28.739Z,39.17
2022-11-19T17:08:06.798Z,34.57
2022-11-19T17:10:34.913Z,33.30
2022-11-19T17:13:04.295Z,35.23
2022-11-19T17:15:47.416Z,34.87
2022-11-19T17:18:21.067Z,29.57
2022-11-19T17:20:51.785Z,29.77
2022-11-19T17:23:18.549Z,40.10
2022-11-19T17:25:46.871Z,39.47
2022-11-19T17:28:19.044Z,39.30
2022-11-19T17:30:46.275Z,38.93
2022-11-19T17:33:15.261Z,40.77
2022-11-19T17:35:43.326Z,39.87
2022-11-19T17:38:10.451Z,44.10
2022-11-19T17:40:38.592Z,35.27
2022-11-19T17:43:27.846Z,37.23
2022-11-19T17:45:54.808Z,40.63
2022-11-19T17:48:22.723Z,39.07
2022-11-19T17:50:49.595Z,41.63
2022-11-19T17:53:16.443Z,42.50
2022-11-19T17:55:43.823Z,41.23
2022-11-19T17:58:10.620Z,43.27
2022-11-19T18:00:37.611Z,42.47
2022-11-19T18:03:04.368Z,37.63
2022-11-19T18:05:36.539Z,39.53
2022-11-19T18:08:03.994Z,35.63
2022-11-19T18:10:30.740Z,39.47
2022-11-19T18:12:57.566Z,39.17
2022-11-19T18:15:24.814Z,38.63
2022-11-19T18:17:52.192Z,34.77
2022-11-19T18:20:18.994Z,33.37
2022-11-19T18:22:45.879Z,34.80
2022-11-19T18:25:14.735Z,39.00
2022-11-19T18:27:41.622Z,36.23
2022-11-19T18:30:08.716Z,34.10
2022-11-19T18:32:35.525Z,38.10
2022-11-19T18:35:02.377Z,42.73
2022-11-19T18:37:29.834Z,41.63
2022-11-19T18:39:57.116Z,45.67
2022-11-19T18:42:24.126Z,37.67
2022-11-19T18:44:51.355Z,46.13
2022-11-19T18:47:19.066Z,44.33
2022-11-19T18:49:46.037Z,45.97
2022-11-19T18:52:15.320Z,54.70
2022-11-19T18:54:42.536Z,52.73
2022-11-19T18:57:09.576Z,44.67
2022-11-19T18:59:36.370Z,48.00
2022-11-19T19:02:03.267Z,50.43
2022-11-19T19:04:30.385Z,50.50
2022-11-19T19:06:59.405Z,52.20
2022-11-19T19:09:26.594Z,53.23
2022-11-19T19:12:13.972Z,47.83
2022-11-19T19:14:42.103Z,56.17
2022-11-19T19:17:09.081Z,50.77
2022-11-19T19:19:36.068Z,57.23
2022-11-19T19:22:02.955Z,57.03
2022-11-19T19:24:30.668Z,57.60
2022-11-19T19:26:57.612Z,47.10
2022-11-19T19:29:24.839Z,53.70
2022-11-19T19:31:52.193Z,50.67
2022-11-19T19:34:19.560Z,58.30
2022-11-19T19:36:51.775Z,52.97
2022-11-19T19:39:21.186Z,54.97
2022-11-19T19:41:49.611Z,53.20
2022-11-19T19:44:17.415Z,54.00
2022-11-19T19:46:47.719Z,61.23
2022-11-19T19:49:15.753Z,54.93
2022-11-19T19:51:42.807Z,55.93
2022-11-19T19:54:10.169Z,54.17
2022-11-19T19:56:37.111Z,52.97
2022-11-19T19:59:04.213Z,61.43
2022-11-19T20:01:32.830Z,67.23
2022-11-19T20:04:01.611Z,68.57
2022-11-19T20:06:29.104Z,68.53
2022-11-19T20:08:56.163Z,69.93
2022-11-19T20:11:26.545Z,71.63
2022-11-19T20:13:54.703Z,61.47
2022-11-19T20:16:23.328Z,63.10
2022-11-19T20:18:51.026Z,64.07
2022-11-19T20:21:19.655Z,70.23
2022-11-19T20:23:46.814Z,67.33
2022-11-19T20:26:15.879Z,63.13
2022-11-19T20:28:42.912Z,67.60
2022-11-19T20:31:09.811Z,62.23
2022-11-19T20:33:36.979Z,69.30
2022-11-19T20:36:04.196Z,65.07
2022-11-19T20:38:31.146Z,88.03
2022-11-19T20:40:59.241Z,80.40
2022-11-19T20:43:51.445Z,83.50
2022-11-19T20:46:21.820Z,77.83
2022-11-19T20:48:49.080Z,61.90
2022-11-19T20:51:20.890Z,61.83
2022-11-19T20:53:47.706Z,69.63
2022-11-19T20:56:14.787Z,66.60
2022-11-19T20:58:41.716Z,61.63
2022-11-19T21:01:11.830Z,70.17
2022-11-19T21:03:39.404Z,59.27
2022-11-19T21:06:07.671Z,67.90
2022-11-19T21:08:35.290Z,69.20
2022-11-19T21:11:03.628Z,66.40
2022-11-19T21:13:30.616Z,69.40
2022-11-19T21:15:58.113Z,70.63
2022-11-19T21:18:25.547Z,66.50
2022-11-19T21:20:52.382Z,66.50
2022-11-19T21:23:19.645Z,64.47
2022-11-19T21:25:46.547Z,76.80
2022-11-19T21:28:14.446Z,68.83
2022-11-19T21:30:41.493Z,66.40
2022-11-19T21:33:08.383Z,75.77
2022-11-19T21:35:39.911Z,72.17
2022-11-19T21:38:11.896Z,65.10
2022-11-19T21:40:39.732Z,70.83
2022-11-19T21:43:07.150Z,70.03
2022-11-19T21:45:34.058Z,71.17
2022-11-19T21:48:00.845Z,75.23
2022-11-19T21:50:27.924Z,68.20
2022-11-19T21:52:54.748Z,63.60
2022-11-19T21:55:21.531Z,66.27
2022-11-19T21:57:48.396Z,73.30
2022-11-19T22:00:15.883Z,61.90
2022-11-19T22:02:43.510Z,71.27
2022-11-19T22:05:10.604Z,66.60
2022-11-19T22:07:37.446Z,62.57
2022-11-19T22:10:04.430Z,72.73
2022-11-19T22:12:31.508Z,61.37
2022-11-19T22:14:58.359Z,67.27
2022-11-19T22:17:30.128Z,68.63
2022-11-19T22:19:59.486Z,60.70
2022-11-19T22:22:26.306Z,63.03
2022-11-19T22:24:53.272Z,66.70
2022-11-19T22:27:20.033Z,65.67
2022-11-19T22:29:47.024Z,63.67
2022-11-19T22:32:14.010Z,64.03
2022-11-19T22:34:40.782Z,59.83
2022-11-19T22:37:08.164Z,64.20
2022-11-19T22:39:35.437Z,65.63
2022-11-19T22:42:02.289Z,68.67
2022-11-19T22:44:29.049Z,68.87
2022-11-19T22:46:58.821Z,70.50
2022-11-19T22:49:26.669Z,67.83
2022-11-19T22:51:53.612Z,66.07
2022-11-19T22:54:20.485Z,67.07
2022-11-19T22:56:47.306Z,63.07
2022-11-19T22:59:14.140Z,63.50
2022-11-19T23:01:41.036Z,60.03
2022-11-19T23:04:07.882Z,63.03
2022-11-19T23:06:35.724Z,65.37
2022-11-19T23:09:03.848Z,66.97
2022-11-19T23:11:49.042Z,66.50
2022-11-19T23:14:16.966Z,65.97
2022-11-19T23:16:43.799Z,62.20
2022-11-19T23:19:11.899Z,65.63
2022-11-19T23:21:39.087Z,65.60
2022-11-19T23:24:06.042Z,69.23
2022-11-19T23:26:33.575Z,63.00
2022-11-19T23:29:00.697Z,62.23
2022-11-19T23:31:29.030Z,63.53
2022-11-19T23:33:59.101Z,69.07
2022-11-19T23:36:31.291Z,61.07
2022-11-19T23:38:59.009Z,67.50
2022-11-19T23:41:26.228Z,60.27
2022-11-19T23:43:53.674Z,60.90
2022-11-19T23:46:21.763Z,62.27
2022-11-19T23:48:49.723Z,64.30
2022-11-19T23:51:17.778Z,67.47
2022-11-19T23:53:44.631Z,67.20
2022-11-19T23:56:12.379Z,69.67
2022-11-19T23:58:39.449Z,66.97
